Terminal Aerodrome Forecast
Issued by NWS Norman, OK

Current Version | Previous Version | Text Only | Print | Product List | Glossary On
Versions: 1 2 3 4 5 6 7 8 9 10 11 12 13
000
FTUS44 KOUN 262334
TAFOKC
TAF
KOKC 262334Z 2700/2724 18013G19KT P6SM SCT050 BKN180
     FM270100 18012KT P6SM BKN100 BKN250
     FM270300 24012KT P6SM SCT250
     FM270500 33014G20KT P6SM BKN015
     FM271800 35010KT P6SM OVC050
     FM272100 36008KT P6SM FEW250=

USA.gov is the U.S. government's official web portal to all federal, state and local government web resources and services.